sensor_id;sensor_type;location;lat;lon;timestamp;P1;durP1;ratioP1;P2;durP2;ratioP2
2474;SDS011;1248;48.694;10.160;2022-12-07T00:00:16;13.23;;;10.10;;
2474;SDS011;1248;48.694;10.160;2022-12-07T00:02:44;12.80;;;9.40;;
2474;SDS011;1248;48.694;10.160;2022-12-07T00:05:11;11.40;;;9.30;;
2474;SDS011;1248;48.694;10.160;2022-12-07T00:07:38;10.50;;;8.63;;
2474;SDS011;1248;48.694;10.160;2022-12-07T00:10:05;10.07;;;8.90;;
2474;SDS011;1248;48.694;10.160;2022-12-07T00:12:34;11.87;;;9.53;;
2474;SDS011;1248;48.694;10.160;2022-12-07T00:15:02;21.13;;;13.93;;
2474;SDS011;1248;48.694;10.160;2022-12-07T00:17:29;16.17;;;11.90;;
2474;SDS011;1248;48.694;10.160;2022-12-07T00:19:56;23.27;;;16.47;;
2474;SDS011;1248;48.694;10.160;2022-12-07T00:22:23;25.60;;;17.20;;
2474;SDS011;1248;48.694;10.160;2022-12-07T00:24:50;20.03;;;14.40;;
2474;SDS011;1248;48.694;10.160;2022-12-07T00:27:17;14.07;;;11.63;;
2474;SDS011;1248;48.694;10.160;2022-12-07T00:29:46;11.63;;;10.20;;
2474;SDS011;1248;48.694;10.160;2022-12-07T00:32:13;11.13;;;9.57;;
2474;SDS011;1248;48.694;10.160;2022-12-07T00:34:40;14.33;;;9.97;;
2474;SDS011;1248;48.694;10.160;2022-12-07T00:37:07;14.00;;;10.37;;
2474;SDS011;1248;48.694;10.160;2022-12-07T00:39:34;10.80;;;9.67;;
2474;SDS011;1248;48.694;10.160;2022-12-07T00:42:01;11.07;;;9.37;;
2474;SDS011;1248;48.694;10.160;2022-12-07T00:44:28;13.67;;;11.17;;
2474;SDS011;1248;48.694;10.160;2022-12-07T00:46:57;11.63;;;9.70;;
2474;SDS011;1248;48.694;10.160;2022-12-07T00:49:24;9.60;;;8.03;;
2474;SDS011;1248;48.694;10.160;2022-12-07T00:51:51;11.07;;;9.90;;
2474;SDS011;1248;48.694;10.160;2022-12-07T00:54:18;12.07;;;9.47;;
2474;SDS011;1248;48.694;10.160;2022-12-07T00:56:45;11.10;;;9.50;;
2474;SDS011;1248;48.694;10.160;2022-12-07T00:59:12;12.53;;;9.90;;
2474;SDS011;1248;48.694;10.160;2022-12-07T01:01:41;10.30;;;8.70;;
2474;SDS011;1248;48.694;10.160;2022-12-07T01:04:09;13.00;;;9.90;;
2474;SDS011;1248;48.694;10.160;2022-12-07T01:06:36;14.20;;;11.60;;
2474;SDS011;1248;48.694;10.160;2022-12-07T01:09:03;11.77;;;9.80;;
2474;SDS011;1248;48.694;10.160;2022-12-07T01:11:31;13.27;;;10.57;;
2474;SDS011;1248;48.694;10.160;2022-12-07T01:13:59;12.47;;;9.77;;
2474;SDS011;1248;48.694;10.160;2022-12-07T01:16:28;11.93;;;9.27;;
2474;SDS011;1248;48.694;10.160;2022-12-07T01:18:56;14.70;;;11.70;;
2474;SDS011;1248;48.694;10.160;2022-12-07T01:21:26;12.73;;;10.17;;
2474;SDS011;1248;48.694;10.160;2022-12-07T01:23:54;12.07;;;9.67;;
2474;SDS011;1248;48.694;10.160;2022-12-07T01:26:24;11.93;;;9.93;;
2474;SDS011;1248;48.694;10.160;2022-12-07T01:28:51;15.10;;;11.33;;
2474;SDS011;1248;48.694;10.160;2022-12-07T01:31:21;12.40;;;10.37;;
2474;SDS011;1248;48.694;10.160;2022-12-07T01:33:50;13.10;;;10.73;;
2474;SDS011;1248;48.694;10.160;2022-12-07T01:36:19;12.30;;;10.93;;
2474;SDS011;1248;48.694;10.160;2022-12-07T01:38:49;12.20;;;10.93;;
2474;SDS011;1248;48.694;10.160;2022-12-07T01:41:18;14.43;;;11.33;;
2474;SDS011;1248;48.694;10.160;2022-12-07T01:46:43;12.40;;;10.67;;
2474;SDS011;1248;48.694;10.160;2022-12-07T01:49:12;11.93;;;10.37;;
2474;SDS011;1248;48.694;10.160;2022-12-07T01:51:45;13.80;;;10.13;;
2474;SDS011;1248;48.694;10.160;2022-12-07T01:54:14;12.60;;;9.97;;
2474;SDS011;1248;48.694;10.160;2022-12-07T01:56:44;12.83;;;10.53;;
2474;SDS011;1248;48.694;10.160;2022-12-07T01:59:14;14.70;;;10.27;;
2474;SDS011;1248;48.694;10.160;2022-12-07T02:01:41;12.87;;;10.97;;
2474;SDS011;1248;48.694;10.160;2022-12-07T02:04:08;12.30;;;10.30;;
2474;SDS011;1248;48.694;10.160;2022-12-07T02:06:37;13.10;;;10.30;;
2474;SDS011;1248;48.694;10.160;2022-12-07T02:09:04;14.73;;;11.23;;
2474;SDS011;1248;48.694;10.160;2022-12-07T02:11:33;14.30;;;11.10;;
2474;SDS011;1248;48.694;10.160;2022-12-07T02:14:00;14.17;;;11.07;;
2474;SDS011;1248;48.694;10.160;2022-12-07T02:16:29;18.23;;;13.10;;
2474;SDS011;1248;48.694;10.160;2022-12-07T02:19:02;13.53;;;10.73;;
2474;SDS011;1248;48.694;10.160;2022-12-07T02:21:42;14.47;;;11.17;;
2474;SDS011;1248;48.694;10.160;2022-12-07T02:24:22;16.40;;;11.20;;
2474;SDS011;1248;48.694;10.160;2022-12-07T02:27:00;16.63;;;12.03;;
2474;SDS011;1248;48.694;10.160;2022-12-07T02:29:47;13.63;;;11.07;;
2474;SDS011;1248;48.694;10.160;2022-12-07T02:32:18;15.87;;;11.13;;
2474;SDS011;1248;48.694;10.160;2022-12-07T02:34:48;12.03;;;10.07;;
2474;SDS011;1248;48.694;10.160;2022-12-07T02:37:21;15.20;;;12.17;;
2474;SDS011;1248;48.694;10.160;2022-12-07T02:39:54;17.10;;;11.23;;
2474;SDS011;1248;48.694;10.160;2022-12-07T02:42:26;12.23;;;10.10;;
2474;SDS011;1248;48.694;10.160;2022-12-07T02:44:58;12.00;;;8.30;;
2474;SDS011;1248;48.694;10.160;2022-12-07T02:47:26;8.43;;;6.67;;
2474;SDS011;1248;48.694;10.160;2022-12-07T02:49:53;7.60;;;6.63;;
2474;SDS011;1248;48.694;10.160;2022-12-07T02:52:20;6.67;;;5.90;;
2474;SDS011;1248;48.694;10.160;2022-12-07T02:54:48;8.77;;;6.60;;
2474;SDS011;1248;48.694;10.160;2022-12-07T02:57:19;7.87;;;6.90;;
2474;SDS011;1248;48.694;10.160;2022-12-07T02:59:58;8.87;;;7.63;;
2474;SDS011;1248;48.694;10.160;2022-12-07T03:02:31;9.73;;;7.57;;
2474;SDS011;1248;48.694;10.160;2022-12-07T03:05:07;8.83;;;7.83;;
2474;SDS011;1248;48.694;10.160;2022-12-07T03:07:42;8.97;;;7.97;;
2474;SDS011;1248;48.694;10.160;2022-12-07T03:10:17;9.20;;;7.87;;
2474;SDS011;1248;48.694;10.160;2022-12-07T03:12:47;10.83;;;9.23;;
2474;SDS011;1248;48.694;10.160;2022-12-07T03:15:25;12.30;;;9.40;;
2474;SDS011;1248;48.694;10.160;2022-12-07T03:17:55;12.07;;;9.23;;
2474;SDS011;1248;48.694;10.160;2022-12-07T03:20:25;13.30;;;10.43;;
2474;SDS011;1248;48.694;10.160;2022-12-07T03:22:53;10.80;;;9.20;;
2474;SDS011;1248;48.694;10.160;2022-12-07T03:25:21;10.93;;;8.70;;
2474;SDS011;1248;48.694;10.160;2022-12-07T03:27:49;10.53;;;9.20;;
2474;SDS011;1248;48.694;10.160;2022-12-07T03:30:23;15.90;;;8.97;;
2474;SDS011;1248;48.694;10.160;2022-12-07T03:32:53;15.60;;;11.03;;
2474;SDS011;1248;48.694;10.160;2022-12-07T03:35:24;12.77;;;9.70;;
2474;SDS011;1248;48.694;10.160;2022-12-07T03:37:54;16.60;;;11.00;;
2474;SDS011;1248;48.694;10.160;2022-12-07T03:40:22;13.60;;;10.00;;
2474;SDS011;1248;48.694;10.160;2022-12-07T03:42:52;16.93;;;13.83;;
2474;SDS011;1248;48.694;10.160;2022-12-07T03:45:20;14.53;;;11.57;;
2474;SDS011;1248;48.694;10.160;2022-12-07T03:47:53;13.30;;;10.90;;
2474;SDS011;1248;48.694;10.160;2022-12-07T03:50:25;15.70;;;13.13;;
2474;SDS011;1248;48.694;10.160;2022-12-07T03:52:56;21.83;;;16.23;;
2474;SDS011;1248;48.694;10.160;2022-12-07T03:55:27;18.83;;;15.47;;
2474;SDS011;1248;48.694;10.160;2022-12-07T03:58:00;16.93;;;12.93;;
2474;SDS011;1248;48.694;10.160;2022-12-07T04:00:31;15.00;;;12.47;;
2474;SDS011;1248;48.694;10.160;2022-12-07T04:02:59;18.30;;;13.70;;
2474;SDS011;1248;48.694;10.160;2022-12-07T04:05:26;15.30;;;11.60;;
2474;SDS011;1248;48.694;10.160;2022-12-07T04:07:53;14.97;;;10.70;;
2474;SDS011;1248;48.694;10.160;2022-12-07T04:10:20;15.37;;;10.60;;
2474;SDS011;1248;48.694;10.160;2022-12-07T04:12:47;15.73;;;11.60;;
2474;SDS011;1248;48.694;10.160;2022-12-07T04:15:14;11.00;;;9.40;;
2474;SDS011;1248;48.694;10.160;2022-12-07T04:17:43;12.60;;;10.33;;
2474;SDS011;1248;48.694;10.160;2022-12-07T04:20:11;15.00;;;10.63;;
2474;SDS011;1248;48.694;10.160;2022-12-07T04:22:38;15.03;;;10.90;;
2474;SDS011;1248;48.694;10.160;2022-12-07T04:25:06;13.50;;;9.90;;
2474;SDS011;1248;48.694;10.160;2022-12-07T04:27:33;11.60;;;9.33;;
2474;SDS011;1248;48.694;10.160;2022-12-07T04:30:00;14.33;;;10.00;;
2474;SDS011;1248;48.694;10.160;2022-12-07T04:32:27;15.07;;;10.43;;
2474;SDS011;1248;48.694;10.160;2022-12-07T04:34:56;14.43;;;11.30;;
2474;SDS011;1248;48.694;10.160;2022-12-07T04:37:23;14.70;;;10.70;;
2474;SDS011;1248;48.694;10.160;2022-12-07T04:39:50;11.87;;;10.10;;
2474;SDS011;1248;48.694;10.160;2022-12-07T04:42:17;15.60;;;11.00;;
2474;SDS011;1248;48.694;10.160;2022-12-07T04:44:44;15.03;;;11.67;;
2474;SDS011;1248;48.694;10.160;2022-12-07T04:47:11;16.00;;;11.90;;
2474;SDS011;1248;48.694;10.160;2022-12-07T04:49:38;14.23;;;10.70;;
2474;SDS011;1248;48.694;10.160;2022-12-07T04:52:07;15.67;;;11.90;;
2474;SDS011;1248;48.694;10.160;2022-12-07T04:54:34;14.00;;;10.70;;
2474;SDS011;1248;48.694;10.160;2022-12-07T04:57:01;18.50;;;13.00;;
2474;SDS011;1248;48.694;10.160;2022-12-07T04:59:28;19.03;;;13.47;;
2474;SDS011;1248;48.694;10.160;2022-12-07T05:01:55;16.60;;;12.60;;
2474;SDS011;1248;48.694;10.160;2022-12-07T05:04:22;19.70;;;12.93;;
2474;SDS011;1248;48.694;10.160;2022-12-07T05:06:49;22.10;;;13.43;;
2474;SDS011;1248;48.694;10.160;2022-12-07T05:09:18;16.70;;;11.60;;
2474;SDS011;1248;48.694;10.160;2022-12-07T05:11:45;17.20;;;11.47;;
2474;SDS011;1248;48.694;10.160;2022-12-07T05:14:12;20.87;;;13.50;;
2474;SDS011;1248;48.694;10.160;2022-12-07T05:16:41;23.20;;;15.67;;
2474;SDS011;1248;48.694;10.160;2022-12-07T05:19:10;17.80;;;12.67;;
2474;SDS011;1248;48.694;10.160;2022-12-07T05:21:37;21.60;;;13.53;;
2474;SDS011;1248;48.694;10.160;2022-12-07T05:24:05;18.70;;;13.53;;
2474;SDS011;1248;48.694;10.160;2022-12-07T05:26:35;18.63;;;13.70;;
2474;SDS011;1248;48.694;10.160;2022-12-07T05:29:02;20.53;;;14.53;;
2474;SDS011;1248;48.694;10.160;2022-12-07T05:31:30;20.90;;;14.17;;
2474;SDS011;1248;48.694;10.160;2022-12-07T05:33:57;21.47;;;15.03;;
2474;SDS011;1248;48.694;10.160;2022-12-07T05:36:24;20.83;;;13.47;;
2474;SDS011;1248;48.694;10.160;2022-12-07T05:38:54;23.30;;;14.90;;
2474;SDS011;1248;48.694;10.160;2022-12-07T05:41:21;20.33;;;14.27;;
2474;SDS011;1248;48.694;10.160;2022-12-07T05:44:12;26.30;;;14.87;;
2474;SDS011;1248;48.694;10.160;2022-12-07T05:46:39;20.47;;;15.20;;
2474;SDS011;1248;48.694;10.160;2022-12-07T05:49:06;23.70;;;15.70;;
2474;SDS011;1248;48.694;10.160;2022-12-07T05:51:33;24.00;;;17.33;;
2474;SDS011;1248;48.694;10.160;2022-12-07T05:54:00;26.57;;;17.50;;
2474;SDS011;1248;48.694;10.160;2022-12-07T05:56:28;21.10;;;16.33;;
2474;SDS011;1248;48.694;10.160;2022-12-07T05:58:55;25.77;;;16.37;;
2474;SDS011;1248;48.694;10.160;2022-12-07T06:01:41;25.20;;;16.03;;
2474;SDS011;1248;48.694;10.160;2022-12-07T06:04:08;20.47;;;15.03;;
2474;SDS011;1248;48.694;10.160;2022-12-07T06:06:35;22.97;;;17.00;;
2474;SDS011;1248;48.694;10.160;2022-12-07T06:09:03;25.93;;;16.80;;
2474;SDS011;1248;48.694;10.160;2022-12-07T06:11:30;24.90;;;16.80;;
2474;SDS011;1248;48.694;10.160;2022-12-07T06:14:14;24.70;;;16.70;;
2474;SDS011;1248;48.694;10.160;2022-12-07T06:16:43;21.37;;;15.30;;
2474;SDS011;1248;48.694;10.160;2022-12-07T06:19:10;23.83;;;16.80;;
2474;SDS011;1248;48.694;10.160;2022-12-07T06:21:37;24.23;;;15.40;;
2474;SDS011;1248;48.694;10.160;2022-12-07T06:24:05;22.17;;;15.50;;
2474;SDS011;1248;48.694;10.160;2022-12-07T06:26:32;26.00;;;16.70;;
2474;SDS011;1248;48.694;10.160;2022-12-07T06:28:59;24.23;;;15.37;;
2474;SDS011;1248;48.694;10.160;2022-12-07T06:31:26;19.57;;;15.10;;
2474;SDS011;1248;48.694;10.160;2022-12-07T06:33:58;25.33;;;16.10;;
2474;SDS011;1248;48.694;10.160;2022-12-07T06:36:25;23.10;;;15.50;;
2474;SDS011;1248;48.694;10.160;2022-12-07T06:38:52;22.27;;;15.93;;
2474;SDS011;1248;48.694;10.160;2022-12-07T06:41:20;28.93;;;18.30;;
2474;SDS011;1248;48.694;10.160;2022-12-07T06:43:48;24.90;;;16.57;;
2474;SDS011;1248;48.694;10.160;2022-12-07T06:46:15;33.70;;;16.77;;
2474;SDS011;1248;48.694;10.160;2022-12-07T06:48:43;27.03;;;17.30;;
2474;SDS011;1248;48.694;10.160;2022-12-07T06:51:11;27.40;;;16.90;;
2474;SDS011;1248;48.694;10.160;2022-12-07T06:53:38;25.67;;;17.87;;
2474;SDS011;1248;48.694;10.160;2022-12-07T06:56:06;26.97;;;18.87;;
2474;SDS011;1248;48.694;10.160;2022-12-07T06:58:33;24.93;;;16.37;;
2474;SDS011;1248;48.694;10.160;2022-12-07T07:01:00;27.73;;;19.77;;
2474;SDS011;1248;48.694;10.160;2022-12-07T07:03:28;29.70;;;19.83;;
2474;SDS011;1248;48.694;10.160;2022-12-07T07:05:55;25.63;;;17.60;;
2474;SDS011;1248;48.694;10.160;2022-12-07T07:08:24;24.83;;;18.20;;
2474;SDS011;1248;48.694;10.160;2022-12-07T07:10:51;25.57;;;15.90;;
2474;SDS011;1248;48.694;10.160;2022-12-07T07:13:18;27.70;;;17.70;;
2474;SDS011;1248;48.694;10.160;2022-12-07T07:15:45;23.90;;;16.97;;
2474;SDS011;1248;48.694;10.160;2022-12-07T07:18:12;26.07;;;18.43;;
2474;SDS011;1248;48.694;10.160;2022-12-07T07:20:39;23.50;;;16.63;;
2474;SDS011;1248;48.694;10.160;2022-12-07T07:23:06;24.30;;;17.00;;
2474;SDS011;1248;48.694;10.160;2022-12-07T07:25:35;21.50;;;16.70;;
2474;SDS011;1248;48.694;10.160;2022-12-07T07:28:02;24.10;;;17.07;;
2474;SDS011;1248;48.694;10.160;2022-12-07T07:30:30;23.70;;;16.27;;
2474;SDS011;1248;48.694;10.160;2022-12-07T07:32:57;23.67;;;15.77;;
2474;SDS011;1248;48.694;10.160;2022-12-07T07:35:24;21.47;;;14.50;;
2474;SDS011;1248;48.694;10.160;2022-12-07T07:37:52;24.57;;;15.43;;
2474;SDS011;1248;48.694;10.160;2022-12-07T07:40:19;20.60;;;15.10;;
2474;SDS011;1248;48.694;10.160;2022-12-07T07:42:48;24.10;;;15.83;;
2474;SDS011;1248;48.694;10.160;2022-12-07T07:45:15;21.37;;;13.93;;
2474;SDS011;1248;48.694;10.160;2022-12-07T07:47:43;19.43;;;13.93;;
2474;SDS011;1248;48.694;10.160;2022-12-07T07:50:10;18.10;;;13.53;;
2474;SDS011;1248;48.694;10.160;2022-12-07T07:52:37;19.80;;;13.93;;
2474;SDS011;1248;48.694;10.160;2022-12-07T07:55:05;21.00;;;13.73;;
2474;SDS011;1248;48.694;10.160;2022-12-07T07:57:34;18.70;;;12.50;;
2474;SDS011;1248;48.694;10.160;2022-12-07T08:00:03;14.37;;;10.97;;
2474;SDS011;1248;48.694;10.160;2022-12-07T08:02:30;18.50;;;12.90;;
2474;SDS011;1248;48.694;10.160;2022-12-07T08:04:58;19.33;;;13.63;;
2474;SDS011;1248;48.694;10.160;2022-12-07T08:07:25;19.43;;;11.50;;
2474;SDS011;1248;48.694;10.160;2022-12-07T08:09:53;16.07;;;12.53;;
2474;SDS011;1248;48.694;10.160;2022-12-07T08:12:20;14.00;;;11.50;;
2474;SDS011;1248;48.694;10.160;2022-12-07T08:14:47;17.10;;;12.10;;
2474;SDS011;1248;48.694;10.160;2022-12-07T08:17:16;20.20;;;13.40;;
2474;SDS011;1248;48.694;10.160;2022-12-07T08:19:43;18.60;;;13.27;;
2474;SDS011;1248;48.694;10.160;2022-12-07T08:22:10;18.83;;;12.97;;
2474;SDS011;1248;48.694;10.160;2022-12-07T08:24:37;15.47;;;11.53;;
2474;SDS011;1248;48.694;10.160;2022-12-07T08:27:04;13.77;;;10.13;;
2474;SDS011;1248;48.694;10.160;2022-12-07T08:29:31;11.93;;;10.53;;
2474;SDS011;1248;48.694;10.160;2022-12-07T08:31:58;13.87;;;9.40;;
2474;SDS011;1248;48.694;10.160;2022-12-07T08:34:28;15.67;;;7.83;;
2474;SDS011;1248;48.694;10.160;2022-12-07T08:36:55;8.23;;;7.20;;
2474;SDS011;1248;48.694;10.160;2022-12-07T08:39:22;21.27;;;12.83;;
2474;SDS011;1248;48.694;10.160;2022-12-07T08:41:49;17.03;;;9.67;;
2474;SDS011;1248;48.694;10.160;2022-12-07T08:44:16;12.57;;;8.73;;
2474;SDS011;1248;48.694;10.160;2022-12-07T08:46:44;9.07;;;6.73;;
2474;SDS011;1248;48.694;10.160;2022-12-07T08:49:13;7.77;;;6.90;;
2474;SDS011;1248;48.694;10.160;2022-12-07T08:51:44;9.80;;;7.80;;
2474;SDS011;1248;48.694;10.160;2022-12-07T08:54:12;11.10;;;8.53;;
2474;SDS011;1248;48.694;10.160;2022-12-07T08:56:41;8.10;;;6.73;;
2474;SDS011;1248;48.694;10.160;2022-12-07T08:59:09;6.80;;;5.77;;
2474;SDS011;1248;48.694;10.160;2022-12-07T09:01:37;7.13;;;6.40;;
2474;SDS011;1248;48.694;10.160;2022-12-07T09:04:04;9.50;;;7.20;;
2474;SDS011;1248;48.694;10.160;2022-12-07T09:06:31;10.10;;;7.27;;
2474;SDS011;1248;48.694;10.160;2022-12-07T09:08:59;9.00;;;7.00;;
2474;SDS011;1248;48.694;10.160;2022-12-07T09:11:27;7.90;;;6.20;;
2474;SDS011;1248;48.694;10.160;2022-12-07T09:13:55;9.07;;;6.97;;
2474;SDS011;1248;48.694;10.160;2022-12-07T09:16:22;8.40;;;6.77;;
2474;SDS011;1248;48.694;10.160;2022-12-07T09:18:49;9.80;;;7.50;;
2474;SDS011;1248;48.694;10.160;2022-12-07T09:21:16;8.90;;;6.00;;
2474;SDS011;1248;48.694;10.160;2022-12-07T09:23:43;8.67;;;7.10;;
2474;SDS011;1248;48.694;10.160;2022-12-07T09:26:12;9.57;;;6.90;;
2474;SDS011;1248;48.694;10.160;2022-12-07T09:28:39;8.33;;;7.53;;
2474;SDS011;1248;48.694;10.160;2022-12-07T09:31:06;8.23;;;6.80;;
2474;SDS011;1248;48.694;10.160;2022-12-07T09:33:33;10.03;;;7.30;;
2474;SDS011;1248;48.694;10.160;2022-12-07T09:36:00;8.70;;;6.63;;
2474;SDS011;1248;48.694;10.160;2022-12-07T09:38:28;8.47;;;6.67;;
2474;SDS011;1248;48.694;10.160;2022-12-07T09:40:55;7.63;;;6.00;;
2474;SDS011;1248;48.694;10.160;2022-12-07T09:43:24;10.70;;;6.40;;
2474;SDS011;1248;48.694;10.160;2022-12-07T09:45:52;8.17;;;6.00;;
2474;SDS011;1248;48.694;10.160;2022-12-07T09:48:21;8.10;;;7.13;;
2474;SDS011;1248;48.694;10.160;2022-12-07T09:50:49;9.43;;;6.73;;
2474;SDS011;1248;48.694;10.160;2022-12-07T09:53:19;8.67;;;6.77;;
2474;SDS011;1248;48.694;10.160;2022-12-07T09:55:49;8.23;;;6.23;;
2474;SDS011;1248;48.694;10.160;2022-12-07T09:58:19;8.87;;;6.17;;
2474;SDS011;1248;48.694;10.160;2022-12-07T10:00:49;8.73;;;6.17;;
2474;SDS011;1248;48.694;10.160;2022-12-07T10:03:16;9.67;;;6.07;;
2474;SDS011;1248;48.694;10.160;2022-12-07T10:05:44;7.80;;;5.93;;
2474;SDS011;1248;48.694;10.160;2022-12-07T10:08:12;6.00;;;5.40;;
2474;SDS011;1248;48.694;10.160;2022-12-07T10:10:41;8.93;;;6.40;;
2474;SDS011;1248;48.694;10.160;2022-12-07T10:13:09;7.03;;;6.33;;
2474;SDS011;1248;48.694;10.160;2022-12-07T10:15:44;13.60;;;10.10;;
2474;SDS011;1248;48.694;10.160;2022-12-07T10:18:18;10.00;;;6.37;;
2474;SDS011;1248;48.694;10.160;2022-12-07T10:21:08;8.90;;;6.80;;
2474;SDS011;1248;48.694;10.160;2022-12-07T10:23:38;7.23;;;5.60;;
2474;SDS011;1248;48.694;10.160;2022-12-07T10:28:58;6.70;;;5.80;;
2474;SDS011;1248;48.694;10.160;2022-12-07T10:31:26;9.03;;;6.87;;
2474;SDS011;1248;48.694;10.160;2022-12-07T10:33:55;9.53;;;6.57;;
2474;SDS011;1248;48.694;10.160;2022-12-07T10:36:24;7.27;;;6.57;;
2474;SDS011;1248;48.694;10.160;2022-12-07T10:38:53;6.90;;;5.97;;
2474;SDS011;1248;48.694;10.160;2022-12-07T10:41:25;11.10;;;7.63;;
2474;SDS011;1248;48.694;10.160;2022-12-07T10:43:53;8.67;;;6.77;;
2474;SDS011;1248;48.694;10.160;2022-12-07T10:49:34;7.60;;;6.07;;
2474;SDS011;1248;48.694;10.160;2022-12-07T10:52:15;8.23;;;6.43;;
2474;SDS011;1248;48.694;10.160;2022-12-07T10:54:48;8.07;;;6.20;;
2474;SDS011;1248;48.694;10.160;2022-12-07T10:57:24;5.90;;;5.40;;
2474;SDS011;1248;48.694;10.160;2022-12-07T10:59:59;5.40;;;4.90;;
2474;SDS011;1248;48.694;10.160;2022-12-07T11:02:35;6.30;;;5.70;;
2474;SDS011;1248;48.694;10.160;2022-12-07T11:05:14;6.30;;;5.27;;
2474;SDS011;1248;48.694;10.160;2022-12-07T11:07:47;6.07;;;5.43;;
2474;SDS011;1248;48.694;10.160;2022-12-07T11:10:22;6.40;;;5.47;;
2474;SDS011;1248;48.694;10.160;2022-12-07T11:13:02;7.00;;;5.80;;
2474;SDS011;1248;48.694;10.160;2022-12-07T11:15:44;5.93;;;5.33;;
2474;SDS011;1248;48.694;10.160;2022-12-07T11:18:21;6.07;;;5.27;;
2474;SDS011;1248;48.694;10.160;2022-12-07T11:20:53;6.10;;;4.80;;
2474;SDS011;1248;48.694;10.160;2022-12-07T11:23:25;6.33;;;5.10;;
2474;SDS011;1248;48.694;10.160;2022-12-07T11:26:12;7.13;;;5.70;;
2474;SDS011;1248;48.694;10.160;2022-12-07T11:28:48;5.80;;;5.30;;
2474;SDS011;1248;48.694;10.160;2022-12-07T11:31:28;5.20;;;4.73;;
2474;SDS011;1248;48.694;10.160;2022-12-07T11:34:03;6.37;;;5.30;;
2474;SDS011;1248;48.694;10.160;2022-12-07T11:36:38;7.77;;;5.03;;
2474;SDS011;1248;48.694;10.160;2022-12-07T11:39:11;6.73;;;5.97;;
2474;SDS011;1248;48.694;10.160;2022-12-07T11:41:43;8.70;;;6.20;;
2474;SDS011;1248;48.694;10.160;2022-12-07T11:44:15;8.07;;;5.67;;
2474;SDS011;1248;48.694;10.160;2022-12-07T11:46:50;7.43;;;6.63;;
2474;SDS011;1248;48.694;10.160;2022-12-07T11:49:21;6.27;;;5.67;;
2474;SDS011;1248;48.694;10.160;2022-12-07T11:51:54;8.13;;;5.97;;
2474;SDS011;1248;48.694;10.160;2022-12-07T11:54:25;7.00;;;6.30;;
2474;SDS011;1248;48.694;10.160;2022-12-07T11:56:55;7.20;;;5.50;;
2474;SDS011;1248;48.694;10.160;2022-12-07T11:59:23;7.28;;;5.28;;
2474;SDS011;1248;48.694;10.160;2022-12-07T12:01:53;6.70;;;5.53;;
2474;SDS011;1248;48.694;10.160;2022-12-07T12:04:25;7.70;;;6.00;;
2474;SDS011;1248;48.694;10.160;2022-12-07T12:06:57;7.73;;;6.10;;
2474;SDS011;1248;48.694;10.160;2022-12-07T12:09:25;9.73;;;6.10;;
2474;SDS011;1248;48.694;10.160;2022-12-07T12:12:01;5.37;;;4.60;;
2474;SDS011;1248;48.694;10.160;2022-12-07T12:14:41;7.20;;;5.77;;
2474;SDS011;1248;48.694;10.160;2022-12-07T12:17:17;7.20;;;5.73;;
2474;SDS011;1248;48.694;10.160;2022-12-07T12:19:58;6.63;;;5.40;;
2474;SDS011;1248;48.694;10.160;2022-12-07T12:22:32;9.17;;;5.83;;
2474;SDS011;1248;48.694;10.160;2022-12-07T12:25:03;5.73;;;5.17;;
2474;SDS011;1248;48.694;10.160;2022-12-07T12:27:33;7.23;;;5.60;;
2474;SDS011;1248;48.694;10.160;2022-12-07T12:30:02;8.20;;;5.83;;
2474;SDS011;1248;48.694;10.160;2022-12-07T12:32:34;7.63;;;5.80;;
2474;SDS011;1248;48.694;10.160;2022-12-07T12:37:55;7.53;;;5.97;;
2474;SDS011;1248;48.694;10.160;2022-12-07T12:40:38;8.63;;;5.93;;
2474;SDS011;1248;48.694;10.160;2022-12-07T12:46:37;8.07;;;5.77;;
2474;SDS011;1248;48.694;10.160;2022-12-07T12:55:18;6.23;;;5.60;;
2474;SDS011;1248;48.694;10.160;2022-12-07T12:57:48;6.97;;;5.77;;
2474;SDS011;1248;48.694;10.160;2022-12-07T13:03:54;8.00;;;5.57;;
2474;SDS011;1248;48.694;10.160;2022-12-07T13:06:31;6.80;;;5.40;;
2474;SDS011;1248;48.694;10.160;2022-12-07T13:09:03;7.90;;;5.90;;
2474;SDS011;1248;48.694;10.160;2022-12-07T13:11:32;7.23;;;5.53;;
2474;SDS011;1248;48.694;10.160;2022-12-07T13:17:07;7.63;;;5.77;;
2474;SDS011;1248;48.694;10.160;2022-12-07T13:25:20;7.00;;;6.13;;
2474;SDS011;1248;48.694;10.160;2022-12-07T13:27:57;6.07;;;4.80;;
2474;SDS011;1248;48.694;10.160;2022-12-07T13:30:26;9.77;;;5.80;;
2474;SDS011;1248;48.694;10.160;2022-12-07T13:32:54;6.83;;;5.03;;
2474;SDS011;1248;48.694;10.160;2022-12-07T13:35:30;6.00;;;4.70;;
2474;SDS011;1248;48.694;10.160;2022-12-07T13:37:58;7.40;;;5.50;;
2474;SDS011;1248;48.694;10.160;2022-12-07T13:40:26;6.80;;;5.13;;
2474;SDS011;1248;48.694;10.160;2022-12-07T13:42:58;5.87;;;5.27;;
2474;SDS011;1248;48.694;10.160;2022-12-07T13:45:26;6.50;;;5.33;;
2474;SDS011;1248;48.694;10.160;2022-12-07T13:48:10;5.20;;;4.77;;
2474;SDS011;1248;48.694;10.160;2022-12-07T13:50:41;7.00;;;5.23;;
2474;SDS011;1248;48.694;10.160;2022-12-07T13:53:11;5.33;;;4.63;;
2474;SDS011;1248;48.694;10.160;2022-12-07T13:55:44;6.77;;;5.87;;
2474;SDS011;1248;48.694;10.160;2022-12-07T13:58:13;9.03;;;4.80;;
2474;SDS011;1248;48.694;10.160;2022-12-07T14:00:40;5.80;;;5.30;;
2474;SDS011;1248;48.694;10.160;2022-12-07T14:03:23;8.00;;;7.27;;
2474;SDS011;1248;48.694;10.160;2022-12-07T14:06:03;6.68;;;4.75;;
2474;SDS011;1248;48.694;10.160;2022-12-07T14:08:42;7.43;;;5.33;;
2474;SDS011;1248;48.694;10.160;2022-12-07T14:11:10;6.23;;;5.43;;
2474;SDS011;1248;48.694;10.160;2022-12-07T14:13:47;5.90;;;5.33;;
2474;SDS011;1248;48.694;10.160;2022-12-07T14:16:21;8.63;;;5.57;;
2474;SDS011;1248;48.694;10.160;2022-12-07T14:18:51;8.80;;;5.90;;
2474;SDS011;1248;48.694;10.160;2022-12-07T14:21:19;6.13;;;5.53;;
2474;SDS011;1248;48.694;10.160;2022-12-07T14:24:02;5.60;;;4.97;;
2474;SDS011;1248;48.694;10.160;2022-12-07T14:26:36;9.57;;;6.20;;
2474;SDS011;1248;48.694;10.160;2022-12-07T14:29:21;6.03;;;5.53;;
2474;SDS011;1248;48.694;10.160;2022-12-07T14:31:49;8.00;;;5.50;;
2474;SDS011;1248;48.694;10.160;2022-12-07T14:34:19;11.13;;;6.37;;
2474;SDS011;1248;48.694;10.160;2022-12-07T14:36:46;8.03;;;6.00;;
2474;SDS011;1248;48.694;10.160;2022-12-07T14:39:13;6.27;;;5.67;;
2474;SDS011;1248;48.694;10.160;2022-12-07T14:41:41;5.90;;;5.30;;
2474;SDS011;1248;48.694;10.160;2022-12-07T14:44:17;7.30;;;5.60;;
2474;SDS011;1248;48.694;10.160;2022-12-07T14:46:46;7.53;;;5.40;;
2474;SDS011;1248;48.694;10.160;2022-12-07T14:49:14;9.47;;;6.27;;
2474;SDS011;1248;48.694;10.160;2022-12-07T14:51:41;7.83;;;5.83;;
2474;SDS011;1248;48.694;10.160;2022-12-07T14:54:11;7.40;;;6.07;;
2474;SDS011;1248;48.694;10.160;2022-12-07T14:56:42;7.03;;;6.33;;
2474;SDS011;1248;48.694;10.160;2022-12-07T14:59:09;6.50;;;5.90;;
2474;SDS011;1248;48.694;10.160;2022-12-07T15:01:37;7.50;;;5.90;;
2474;SDS011;1248;48.694;10.160;2022-12-07T15:04:06;7.60;;;6.57;;
2474;SDS011;1248;48.694;10.160;2022-12-07T15:06:33;12.43;;;7.90;;
2474;SDS011;1248;48.694;10.160;2022-12-07T15:09:00;7.27;;;6.47;;
2474;SDS011;1248;48.694;10.160;2022-12-07T15:11:28;7.40;;;6.67;;
2474;SDS011;1248;48.694;10.160;2022-12-07T15:13:55;8.43;;;6.47;;
2474;SDS011;1248;48.694;10.160;2022-12-07T15:16:36;8.37;;;6.43;;
2474;SDS011;1248;48.694;10.160;2022-12-07T15:19:07;7.43;;;6.73;;
2474;SDS011;1248;48.694;10.160;2022-12-07T15:21:37;12.37;;;7.40;;
2474;SDS011;1248;48.694;10.160;2022-12-07T15:24:05;13.23;;;7.20;;
2474;SDS011;1248;48.694;10.160;2022-12-07T15:26:32;9.00;;;6.20;;
2474;SDS011;1248;48.694;10.160;2022-12-07T15:28:59;9.17;;;7.40;;
2474;SDS011;1248;48.694;10.160;2022-12-07T15:31:26;13.83;;;7.87;;
2474;SDS011;1248;48.694;10.160;2022-12-07T15:33:53;9.07;;;7.70;;
2474;SDS011;1248;48.694;10.160;2022-12-07T15:36:23;8.70;;;7.23;;